sensor_id;sensor_type;location;lat;lon;timestamp;P1;durP1;ratioP1;P2;durP2;ratioP2
7336;SDS011;54510;42.016;23.098;2024-02-28T00:01:37;5.15;;;2.50;;
7336;SDS011;54510;42.016;23.098;2024-02-28T00:04:02;6.47;;;2.70;;
7336;SDS011;54510;42.016;23.098;2024-02-28T00:06:27;7.88;;;2.45;;
7336;SDS011;54510;42.016;23.098;2024-02-28T00:08:52;6.35;;;3.38;;
7336;SDS011;54510;42.016;23.098;2024-02-28T00:11:19;6.07;;;3.70;;
7336;SDS011;54510;42.016;23.098;2024-02-28T00:13:45;4.90;;;2.78;;
7336;SDS011;54510;42.016;23.098;2024-02-28T00:16:10;7.90;;;3.17;;
7336;SDS011;54510;42.016;23.098;2024-02-28T00:18:36;5.63;;;3.05;;
7336;SDS011;54510;42.016;23.098;2024-02-28T00:21:02;6.75;;;3.40;;
7336;SDS011;54510;42.016;23.098;2024-02-28T00:23:27;6.68;;;3.63;;
7336;SDS011;54510;42.016;23.098;2024-02-28T00:25:52;7.75;;;3.35;;
7336;SDS011;54510;42.016;23.098;2024-02-28T00:28:18;6.45;;;3.15;;
7336;SDS011;54510;42.016;23.098;2024-02-28T00:30:44;5.68;;;3.22;;
7336;SDS011;54510;42.016;23.098;2024-02-28T00:33:09;8.57;;;4.18;;
7336;SDS011;54510;42.016;23.098;2024-02-28T00:35:34;7.47;;;4.15;;
7336;SDS011;54510;42.016;23.098;2024-02-28T00:38:00;9.85;;;5.15;;
7336;SDS011;54510;42.016;23.098;2024-02-28T00:40:25;8.45;;;4.85;;
7336;SDS011;54510;42.016;23.098;2024-02-28T00:42:51;10.05;;;5.30;;
7336;SDS011;54510;42.016;23.098;2024-02-28T00:45:16;9.13;;;5.47;;
7336;SDS011;54510;42.016;23.098;2024-02-28T00:47:41;9.35;;;4.90;;
7336;SDS011;54510;42.016;23.098;2024-02-28T00:50:07;12.55;;;5.65;;
7336;SDS011;54510;42.016;23.098;2024-02-28T00:52:32;11.90;;;5.05;;
7336;SDS011;54510;42.016;23.098;2024-02-28T00:54:58;8.48;;;4.90;;
7336;SDS011;54510;42.016;23.098;2024-02-28T00:57:23;6.32;;;3.88;;
7336;SDS011;54510;42.016;23.098;2024-02-28T00:59:49;8.20;;;3.75;;
7336;SDS011;54510;42.016;23.098;2024-02-28T01:02:14;6.97;;;4.15;;
7336;SDS011;54510;42.016;23.098;2024-02-28T01:04:39;8.35;;;4.22;;
7336;SDS011;54510;42.016;23.098;2024-02-28T01:07:04;6.97;;;3.60;;
7336;SDS011;54510;42.016;23.098;2024-02-28T01:09:30;7.07;;;5.13;;
7336;SDS011;54510;42.016;23.098;2024-02-28T01:11:55;8.38;;;4.57;;
7336;SDS011;54510;42.016;23.098;2024-02-28T01:14:20;10.90;;;5.13;;
7336;SDS011;54510;42.016;23.098;2024-02-28T01:16:46;9.65;;;5.45;;
7336;SDS011;54510;42.016;23.098;2024-02-28T01:19:11;10.75;;;4.90;;
7336;SDS011;54510;42.016;23.098;2024-02-28T01:21:36;9.68;;;5.20;;
7336;SDS011;54510;42.016;23.098;2024-02-28T01:24:01;10.70;;;5.50;;
7336;SDS011;54510;42.016;23.098;2024-02-28T01:26:27;11.88;;;6.05;;
7336;SDS011;54510;42.016;23.098;2024-02-28T01:28:52;9.85;;;5.28;;
7336;SDS011;54510;42.016;23.098;2024-02-28T01:31:17;9.20;;;5.15;;
7336;SDS011;54510;42.016;23.098;2024-02-28T01:33:42;11.73;;;6.32;;
7336;SDS011;54510;42.016;23.098;2024-02-28T01:36:08;7.97;;;5.40;;
7336;SDS011;54510;42.016;23.098;2024-02-28T01:38:33;10.18;;;5.63;;
7336;SDS011;54510;42.016;23.098;2024-02-28T01:40:58;10.70;;;6.03;;
7336;SDS011;54510;42.016;23.098;2024-02-28T01:43:24;9.30;;;6.10;;
7336;SDS011;54510;42.016;23.098;2024-02-28T01:45:49;9.05;;;5.82;;
7336;SDS011;54510;42.016;23.098;2024-02-28T01:48:15;10.52;;;5.38;;
7336;SDS011;54510;42.016;23.098;2024-02-28T01:50:41;11.15;;;6.20;;
7336;SDS011;54510;42.016;23.098;2024-02-28T01:53:06;10.05;;;6.03;;
7336;SDS011;54510;42.016;23.098;2024-02-28T01:55:34;12.57;;;5.72;;
7336;SDS011;54510;42.016;23.098;2024-02-28T01:57:59;11.95;;;5.82;;
7336;SDS011;54510;42.016;23.098;2024-02-28T02:00:25;11.55;;;6.40;;
7336;SDS011;54510;42.016;23.098;2024-02-28T02:02:51;10.88;;;5.88;;
7336;SDS011;54510;42.016;23.098;2024-02-28T02:05:16;9.40;;;5.22;;
7336;SDS011;54510;42.016;23.098;2024-02-28T02:07:45;10.48;;;5.53;;
7336;SDS011;54510;42.016;23.098;2024-02-28T02:10:11;10.02;;;6.07;;
7336;SDS011;54510;42.016;23.098;2024-02-28T02:12:37;8.23;;;5.68;;
7336;SDS011;54510;42.016;23.098;2024-02-28T02:15:02;10.00;;;5.82;;
7336;SDS011;54510;42.016;23.098;2024-02-28T02:17:27;9.70;;;6.18;;
7336;SDS011;54510;42.016;23.098;2024-02-28T02:19:53;10.25;;;5.32;;
7336;SDS011;54510;42.016;23.098;2024-02-28T02:22:18;9.30;;;5.05;;
7336;SDS011;54510;42.016;23.098;2024-02-28T02:24:45;14.73;;;5.75;;
7336;SDS011;54510;42.016;23.098;2024-02-28T02:27:10;11.63;;;5.15;;
7336;SDS011;54510;42.016;23.098;2024-02-28T02:29:36;7.38;;;4.82;;
7336;SDS011;54510;42.016;23.098;2024-02-28T02:32:01;8.63;;;4.75;;
7336;SDS011;54510;42.016;23.098;2024-02-28T02:34:26;10.80;;;5.20;;
7336;SDS011;54510;42.016;23.098;2024-02-28T02:36:51;16.60;;;6.13;;
7336;SDS011;54510;42.016;23.098;2024-02-28T02:39:17;13.18;;;5.72;;
7336;SDS011;54510;42.016;23.098;2024-02-28T02:41:42;11.75;;;5.75;;
7336;SDS011;54510;42.016;23.098;2024-02-28T02:44:07;10.27;;;4.93;;
7336;SDS011;54510;42.016;23.098;2024-02-28T02:46:33;11.65;;;5.85;;
7336;SDS011;54510;42.016;23.098;2024-02-28T02:48:58;8.13;;;5.32;;
7336;SDS011;54510;42.016;23.098;2024-02-28T02:51:23;8.40;;;5.03;;
7336;SDS011;54510;42.016;23.098;2024-02-28T02:53:49;10.82;;;4.65;;
7336;SDS011;54510;42.016;23.098;2024-02-28T02:56:14;9.52;;;5.25;;
7336;SDS011;54510;42.016;23.098;2024-02-28T02:58:39;12.77;;;5.63;;
7336;SDS011;54510;42.016;23.098;2024-02-28T03:01:04;10.23;;;4.93;;
7336;SDS011;54510;42.016;23.098;2024-02-28T03:03:30;10.05;;;5.57;;
7336;SDS011;54510;42.016;23.098;2024-02-28T03:05:55;9.98;;;5.95;;
7336;SDS011;54510;42.016;23.098;2024-02-28T03:08:21;8.80;;;5.95;;
7336;SDS011;54510;42.016;23.098;2024-02-28T03:10:46;10.07;;;5.55;;
7336;SDS011;54510;42.016;23.098;2024-02-28T03:13:11;9.02;;;4.68;;
7336;SDS011;54510;42.016;23.098;2024-02-28T03:15:36;14.70;;;6.07;;
7336;SDS011;54510;42.016;23.098;2024-02-28T03:18:02;13.40;;;5.15;;
7336;SDS011;54510;42.016;23.098;2024-02-28T03:20:27;12.18;;;6.15;;
7336;SDS011;54510;42.016;23.098;2024-02-28T03:22:52;8.38;;;4.97;;
7336;SDS011;54510;42.016;23.098;2024-02-28T03:25:17;9.43;;;4.95;;
7336;SDS011;54510;42.016;23.098;2024-02-28T03:27:42;17.92;;;5.93;;
7336;SDS011;54510;42.016;23.098;2024-02-28T03:30:08;16.15;;;5.85;;
7336;SDS011;54510;42.016;23.098;2024-02-28T03:32:33;14.65;;;6.28;;
7336;SDS011;54510;42.016;23.098;2024-02-28T03:34:58;9.73;;;5.88;;
7336;SDS011;54510;42.016;23.098;2024-02-28T03:37:24;12.18;;;7.18;;
7336;SDS011;54510;42.016;23.098;2024-02-28T03:39:49;10.45;;;6.63;;
7336;SDS011;54510;42.016;23.098;2024-02-28T03:42:14;11.68;;;5.88;;
7336;SDS011;54510;42.016;23.098;2024-02-28T03:44:39;8.93;;;5.95;;
7336;SDS011;54510;42.016;23.098;2024-02-28T03:47:05;11.40;;;5.75;;
7336;SDS011;54510;42.016;23.098;2024-02-28T03:49:30;16.65;;;6.30;;
7336;SDS011;54510;42.016;23.098;2024-02-28T03:51:55;11.40;;;5.72;;
7336;SDS011;54510;42.016;23.098;2024-02-28T03:54:20;11.98;;;5.63;;
7336;SDS011;54510;42.016;23.098;2024-02-28T03:56:46;16.40;;;7.47;;
7336;SDS011;54510;42.016;23.098;2024-02-28T03:59:11;13.82;;;6.32;;
7336;SDS011;54510;42.016;23.098;2024-02-28T04:01:36;9.40;;;5.75;;
7336;SDS011;54510;42.016;23.098;2024-02-28T04:04:01;10.85;;;6.05;;
7336;SDS011;54510;42.016;23.098;2024-02-28T04:06:27;14.23;;;6.68;;
7336;SDS011;54510;42.016;23.098;2024-02-28T04:08:52;11.45;;;6.90;;
7336;SDS011;54510;42.016;23.098;2024-02-28T04:11:17;11.82;;;6.43;;
7336;SDS011;54510;42.016;23.098;2024-02-28T04:13:43;13.15;;;6.82;;
7336;SDS011;54510;42.016;23.098;2024-02-28T04:16:09;13.32;;;7.38;;
7336;SDS011;54510;42.016;23.098;2024-02-28T04:18:34;14.50;;;7.20;;
7336;SDS011;54510;42.016;23.098;2024-02-28T04:21:00;12.60;;;7.93;;
7336;SDS011;54510;42.016;23.098;2024-02-28T04:23:25;13.40;;;8.13;;
7336;SDS011;54510;42.016;23.098;2024-02-28T04:25:50;13.05;;;7.10;;
7336;SDS011;54510;42.016;23.098;2024-02-28T04:28:15;17.00;;;6.63;;
7336;SDS011;54510;42.016;23.098;2024-02-28T04:30:41;12.90;;;6.50;;
7336;SDS011;54510;42.016;23.098;2024-02-28T04:33:06;11.48;;;7.43;;
7336;SDS011;54510;42.016;23.098;2024-02-28T04:35:32;12.43;;;7.90;;
7336;SDS011;54510;42.016;23.098;2024-02-28T04:37:57;12.20;;;7.90;;
7336;SDS011;54510;42.016;23.098;2024-02-28T04:40:23;9.73;;;7.35;;
7336;SDS011;54510;42.016;23.098;2024-02-28T04:42:48;11.75;;;7.28;;
7336;SDS011;54510;42.016;23.098;2024-02-28T04:45:13;10.07;;;6.55;;
7336;SDS011;54510;42.016;23.098;2024-02-28T04:47:39;12.77;;;6.93;;
7336;SDS011;54510;42.016;23.098;2024-02-28T04:50:04;12.15;;;6.82;;
7336;SDS011;54510;42.016;23.098;2024-02-28T04:52:31;14.07;;;7.35;;
7336;SDS011;54510;42.016;23.098;2024-02-28T04:54:56;14.30;;;7.53;;
7336;SDS011;54510;42.016;23.098;2024-02-28T04:57:21;16.00;;;8.27;;
7336;SDS011;54510;42.016;23.098;2024-02-28T04:59:47;13.02;;;8.05;;
7336;SDS011;54510;42.016;23.098;2024-02-28T05:02:12;19.83;;;9.32;;
7336;SDS011;54510;42.016;23.098;2024-02-28T05:04:37;13.27;;;7.88;;
7336;SDS011;54510;42.016;23.098;2024-02-28T05:07:03;12.60;;;7.10;;
7336;SDS011;54510;42.016;23.098;2024-02-28T05:09:28;12.50;;;7.30;;
7336;SDS011;54510;42.016;23.098;2024-02-28T05:11:54;16.85;;;7.63;;
7336;SDS011;54510;42.016;23.098;2024-02-28T05:14:19;29.27;;;10.02;;
7336;SDS011;54510;42.016;23.098;2024-02-28T05:16:44;14.73;;;9.00;;
7336;SDS011;54510;42.016;23.098;2024-02-28T05:19:09;16.02;;;10.05;;
7336;SDS011;54510;42.016;23.098;2024-02-28T05:21:41;17.83;;;9.02;;
7336;SDS011;54510;42.016;23.098;2024-02-28T05:24:07;13.30;;;9.20;;
7336;SDS011;54510;42.016;23.098;2024-02-28T05:26:33;15.52;;;9.27;;
7336;SDS011;54510;42.016;23.098;2024-02-28T05:28:59;20.02;;;11.80;;
7336;SDS011;54510;42.016;23.098;2024-02-28T05:31:25;24.10;;;12.85;;
7336;SDS011;54510;42.016;23.098;2024-02-28T05:33:51;19.77;;;10.02;;
7336;SDS011;54510;42.016;23.098;2024-02-28T05:36:17;17.27;;;9.07;;
7336;SDS011;54510;42.016;23.098;2024-02-28T05:38:43;15.77;;;8.50;;
7336;SDS011;54510;42.016;23.098;2024-02-28T05:41:08;13.25;;;7.68;;
7336;SDS011;54510;42.016;23.098;2024-02-28T05:43:33;20.70;;;9.60;;
7336;SDS011;54510;42.016;23.098;2024-02-28T05:45:58;16.95;;;8.88;;
7336;SDS011;54510;42.016;23.098;2024-02-28T05:48:24;16.73;;;8.27;;
7336;SDS011;54510;42.016;23.098;2024-02-28T05:50:49;18.02;;;9.50;;
7336;SDS011;54510;42.016;23.098;2024-02-28T05:53:14;19.80;;;9.77;;
7336;SDS011;54510;42.016;23.098;2024-02-28T05:55:39;24.70;;;8.68;;
7336;SDS011;54510;42.016;23.098;2024-02-28T05:58:05;14.13;;;8.07;;
7336;SDS011;54510;42.016;23.098;2024-02-28T06:00:30;14.65;;;7.70;;
7336;SDS011;54510;42.016;23.098;2024-02-28T06:02:55;19.67;;;8.63;;
7336;SDS011;54510;42.016;23.098;2024-02-28T06:05:20;22.17;;;7.43;;
7336;SDS011;54510;42.016;23.098;2024-02-28T06:07:46;17.38;;;8.43;;
7336;SDS011;54510;42.016;23.098;2024-02-28T06:10:11;18.58;;;8.95;;
7336;SDS011;54510;42.016;23.098;2024-02-28T06:12:36;20.83;;;10.68;;
7336;SDS011;54510;42.016;23.098;2024-02-28T06:15:02;17.48;;;11.55;;
7336;SDS011;54510;42.016;23.098;2024-02-28T06:17:27;33.22;;;15.48;;
7336;SDS011;54510;42.016;23.098;2024-02-28T06:19:52;39.70;;;25.50;;
7336;SDS011;54510;42.016;23.098;2024-02-28T06:22:18;54.13;;;31.92;;
7336;SDS011;54510;42.016;23.098;2024-02-28T06:24:44;46.53;;;27.23;;
7336;SDS011;54510;42.016;23.098;2024-02-28T06:27:09;44.05;;;24.23;;
7336;SDS011;54510;42.016;23.098;2024-02-28T06:29:37;28.60;;;16.75;;
7336;SDS011;54510;42.016;23.098;2024-02-28T06:32:03;35.35;;;18.73;;
7336;SDS011;54510;42.016;23.098;2024-02-28T06:34:29;29.55;;;19.65;;
7336;SDS011;54510;42.016;23.098;2024-02-28T06:36:54;26.80;;;14.70;;
7336;SDS011;54510;42.016;23.098;2024-02-28T06:39:19;25.42;;;14.80;;
7336;SDS011;54510;42.016;23.098;2024-02-28T06:41:44;29.17;;;14.15;;
7336;SDS011;54510;42.016;23.098;2024-02-28T06:44:10;18.70;;;12.20;;
7336;SDS011;54510;42.016;23.098;2024-02-28T06:46:36;25.33;;;13.23;;
7336;SDS011;54510;42.016;23.098;2024-02-28T06:49:02;28.25;;;14.80;;
7336;SDS011;54510;42.016;23.098;2024-02-28T06:51:27;22.90;;;13.88;;
7336;SDS011;54510;42.016;23.098;2024-02-28T06:53:52;24.08;;;13.25;;
7336;SDS011;54510;42.016;23.098;2024-02-28T06:56:18;25.85;;;12.93;;
7336;SDS011;54510;42.016;23.098;2024-02-28T06:58:43;26.23;;;13.20;;
7336;SDS011;54510;42.016;23.098;2024-02-28T07:01:08;24.75;;;13.40;;
7336;SDS011;54510;42.016;23.098;2024-02-28T07:03:34;27.30;;;12.07;;
7336;SDS011;54510;42.016;23.098;2024-02-28T07:05:59;20.02;;;11.93;;
7336;SDS011;54510;42.016;23.098;2024-02-28T07:08:24;26.27;;;14.38;;
7336;SDS011;54510;42.016;23.098;2024-02-28T07:10:49;36.13;;;25.98;;
7336;SDS011;54510;42.016;23.098;2024-02-28T07:13:20;35.95;;;21.52;;
7336;SDS011;54510;42.016;23.098;2024-02-28T07:15:45;26.65;;;15.07;;
7336;SDS011;54510;42.016;23.098;2024-02-28T07:18:10;17.98;;;9.88;;
7336;SDS011;54510;42.016;23.098;2024-02-28T07:20:36;22.45;;;11.07;;
7336;SDS011;54510;42.016;23.098;2024-02-28T07:23:01;29.55;;;14.88;;
7336;SDS011;54510;42.016;23.098;2024-02-28T07:25:26;40.90;;;15.55;;
7336;SDS011;54510;42.016;23.098;2024-02-28T07:27:51;28.63;;;14.45;;
7336;SDS011;54510;42.016;23.098;2024-02-28T07:30:17;28.10;;;13.27;;
7336;SDS011;54510;42.016;23.098;2024-02-28T07:32:42;28.55;;;12.60;;
7336;SDS011;54510;42.016;23.098;2024-02-28T07:35:07;29.75;;;14.52;;
7336;SDS011;54510;42.016;23.098;2024-02-28T07:37:33;18.73;;;11.88;;
7336;SDS011;54510;42.016;23.098;2024-02-28T07:39:58;24.90;;;12.00;;
7336;SDS011;54510;42.016;23.098;2024-02-28T07:42:23;23.92;;;13.27;;
7336;SDS011;54510;42.016;23.098;2024-02-28T07:44:48;24.25;;;13.02;;
7336;SDS011;54510;42.016;23.098;2024-02-28T07:47:18;28.73;;;13.90;;
7336;SDS011;54510;42.016;23.098;2024-02-28T07:49:43;46.63;;;25.65;;
7336;SDS011;54510;42.016;23.098;2024-02-28T07:52:08;30.52;;;15.48;;
7336;SDS011;54510;42.016;23.098;2024-02-28T07:54:34;34.15;;;19.85;;
7336;SDS011;54510;42.016;23.098;2024-02-28T07:56:59;34.20;;;18.90;;
7336;SDS011;54510;42.016;23.098;2024-02-28T07:59:24;38.08;;;21.23;;
7336;SDS011;54510;42.016;23.098;2024-02-28T08:01:49;28.67;;;13.63;;
7336;SDS011;54510;42.016;23.098;2024-02-28T08:04:15;27.45;;;14.48;;
7336;SDS011;54510;42.016;23.098;2024-02-28T08:06:40;32.03;;;13.52;;
7336;SDS011;54510;42.016;23.098;2024-02-28T08:09:05;46.28;;;24.02;;
7336;SDS011;54510;42.016;23.098;2024-02-28T08:11:31;25.80;;;14.52;;
7336;SDS011;54510;42.016;23.098;2024-02-28T08:13:56;29.90;;;14.85;;
7336;SDS011;54510;42.016;23.098;2024-02-28T08:16:21;29.27;;;17.38;;
7336;SDS011;54510;42.016;23.098;2024-02-28T08:18:46;30.63;;;17.27;;
7336;SDS011;54510;42.016;23.098;2024-02-28T08:21:12;40.55;;;19.35;;
7336;SDS011;54510;42.016;23.098;2024-02-28T08:23:37;31.77;;;18.50;;
7336;SDS011;54510;42.016;23.098;2024-02-28T08:26:02;47.97;;;29.75;;
7336;SDS011;54510;42.016;23.098;2024-02-28T08:28:28;19.75;;;12.07;;
7336;SDS011;54510;42.016;23.098;2024-02-28T08:30:54;22.85;;;12.15;;
7336;SDS011;54510;42.016;23.098;2024-02-28T08:33:19;23.83;;;13.15;;
7336;SDS011;54510;42.016;23.098;2024-02-28T08:35:44;43.53;;;21.27;;
7336;SDS011;54510;42.016;23.098;2024-02-28T08:38:10;34.00;;;19.17;;
7336;SDS011;54510;42.016;23.098;2024-02-28T08:40:35;33.60;;;19.65;;
7336;SDS011;54510;42.016;23.098;2024-02-28T08:43:01;46.97;;;23.55;;
7336;SDS011;54510;42.016;23.098;2024-02-28T08:45:26;24.48;;;13.48;;
7336;SDS011;54510;42.016;23.098;2024-02-28T08:47:51;23.42;;;14.77;;
7336;SDS011;54510;42.016;23.098;2024-02-28T08:50:18;17.52;;;10.77;;
7336;SDS011;54510;42.016;23.098;2024-02-28T08:52:43;18.23;;;9.82;;
7336;SDS011;54510;42.016;23.098;2024-02-28T08:55:08;19.48;;;9.52;;
7336;SDS011;54510;42.016;23.098;2024-02-28T08:57:34;17.25;;;9.20;;
7336;SDS011;54510;42.016;23.098;2024-02-28T08:59:59;31.02;;;19.25;;
7336;SDS011;54510;42.016;23.098;2024-02-28T09:02:25;21.55;;;10.32;;
7336;SDS011;54510;42.016;23.098;2024-02-28T09:04:50;14.90;;;9.25;;
7336;SDS011;54510;42.016;23.098;2024-02-28T09:07:18;16.88;;;8.90;;
7336;SDS011;54510;42.016;23.098;2024-02-28T09:09:46;15.93;;;9.48;;
7336;SDS011;54510;42.016;23.098;2024-02-28T09:12:11;18.95;;;9.98;;
7336;SDS011;54510;42.016;23.098;2024-02-28T09:14:37;24.50;;;12.65;;
7336;SDS011;54510;42.016;23.098;2024-02-28T09:17:03;23.90;;;12.55;;
7336;SDS011;54510;42.016;23.098;2024-02-28T09:19:29;15.52;;;9.52;;
7336;SDS011;54510;42.016;23.098;2024-02-28T09:21:54;19.23;;;9.90;;
7336;SDS011;54510;42.016;23.098;2024-02-28T09:24:19;17.38;;;10.10;;
7336;SDS011;54510;42.016;23.098;2024-02-28T09:26:45;17.70;;;9.43;;
7336;SDS011;54510;42.016;23.098;2024-02-28T09:29:10;21.80;;;10.85;;
7336;SDS011;54510;42.016;23.098;2024-02-28T09:31:35;19.45;;;9.80;;
7336;SDS011;54510;42.016;23.098;2024-02-28T09:34:01;18.88;;;8.38;;
7336;SDS011;54510;42.016;23.098;2024-02-28T09:36:31;15.77;;;8.50;;
7336;SDS011;54510;42.016;23.098;2024-02-28T09:38:56;15.25;;;7.63;;
7336;SDS011;54510;42.016;23.098;2024-02-28T09:41:21;16.58;;;7.72;;
7336;SDS011;54510;42.016;23.098;2024-02-28T09:43:47;22.65;;;8.60;;
7336;SDS011;54510;42.016;23.098;2024-02-28T09:46:13;19.70;;;10.68;;
7336;SDS011;54510;42.016;23.098;2024-02-28T09:48:39;16.65;;;8.93;;
7336;SDS011;54510;42.016;23.098;2024-02-28T09:51:05;14.73;;;9.48;;
7336;SDS011;54510;42.016;23.098;2024-02-28T09:53:31;16.25;;;9.60;;
7336;SDS011;54510;42.016;23.098;2024-02-28T09:55:56;15.30;;;8.90;;
7336;SDS011;54510;42.016;23.098;2024-02-28T09:58:21;27.95;;;13.85;;
7336;SDS011;54510;42.016;23.098;2024-02-28T10:00:48;18.35;;;11.13;;
7336;SDS011;54510;42.016;23.098;2024-02-28T10:03:13;19.77;;;9.02;;
7336;SDS011;54510;42.016;23.098;2024-02-28T10:05:41;17.23;;;10.18;;
7336;SDS011;54510;42.016;23.098;2024-02-28T10:08:06;29.80;;;16.92;;
7336;SDS011;54510;42.016;23.098;2024-02-28T10:10:31;19.10;;;12.85;;
7336;SDS011;54510;42.016;23.098;2024-02-28T10:12:57;17.05;;;7.85;;
7336;SDS011;54510;42.016;23.098;2024-02-28T10:15:23;16.33;;;8.30;;
7336;SDS011;54510;42.016;23.098;2024-02-28T10:17:51;24.50;;;12.57;;
7336;SDS011;54510;42.016;23.098;2024-02-28T10:20:16;15.85;;;10.35;;
7336;SDS011;54510;42.016;23.098;2024-02-28T10:22:41;10.52;;;6.70;;
7336;SDS011;54510;42.016;23.098;2024-02-28T10:25:07;12.65;;;6.30;;
7336;SDS011;54510;42.016;23.098;2024-02-28T10:27:33;28.55;;;17.95;;
7336;SDS011;54510;42.016;23.098;2024-02-28T10:29:58;17.30;;;7.82;;
7336;SDS011;54510;42.016;23.098;2024-02-28T10:32:24;11.55;;;6.05;;
7336;SDS011;54510;42.016;23.098;2024-02-28T10:34:49;12.13;;;6.35;;
7336;SDS011;54510;42.016;23.098;2024-02-28T10:37:14;12.00;;;6.75;;
7336;SDS011;54510;42.016;23.098;2024-02-28T10:39:39;13.20;;;5.22;;
7336;SDS011;54510;42.016;23.098;2024-02-28T10:42:06;8.32;;;4.70;;
7336;SDS011;54510;42.016;23.098;2024-02-28T10:44:33;13.63;;;6.65;;
7336;SDS011;54510;42.016;23.098;2024-02-28T10:47:00;8.63;;;3.90;;
7336;SDS011;54510;42.016;23.098;2024-02-28T10:49:26;11.40;;;4.88;;
7336;SDS011;54510;42.016;23.098;2024-02-28T10:51:51;9.32;;;4.95;;
7336;SDS011;54510;42.016;23.098;2024-02-28T10:54:19;20.20;;;11.32;;
7336;SDS011;54510;42.016;23.098;2024-02-28T10:56:46;14.65;;;6.30;;
7336;SDS011;54510;42.016;23.098;2024-02-28T10:59:12;8.90;;;3.60;;
7336;SDS011;54510;42.016;23.098;2024-02-28T11:01:41;10.27;;;4.85;;
7336;SDS011;54510;42.016;23.098;2024-02-28T11:04:07;7.63;;;3.88;;
7336;SDS011;54510;42.016;23.098;2024-02-28T11:06:33;10.82;;;5.47;;
7336;SDS011;54510;42.016;23.098;2024-02-28T11:09:02;8.27;;;3.92;;
7336;SDS011;54510;42.016;23.098;2024-02-28T11:11:31;12.38;;;3.00;;
7336;SDS011;54510;42.016;23.098;2024-02-28T11:13:57;18.65;;;3.00;;
7336;SDS011;54510;42.016;23.098;2024-02-28T11:16:34;9.18;;;2.20;;
7336;SDS011;54510;42.016;23.098;2024-02-28T11:19:01;6.40;;;3.15;;
7336;SDS011;54510;42.016;23.098;2024-02-28T11:21:29;5.85;;;2.65;;
7336;SDS011;54510;42.016;23.098;2024-02-28T11:23:57;10.00;;;3.03;;
7336;SDS011;54510;42.016;23.098;2024-02-28T11:26:23;11.27;;;2.38;;
7336;SDS011;54510;42.016;23.098;2024-02-28T11:28:49;10.82;;;2.67;;
7336;SDS011;54510;42.016;23.098;2024-02-28T11:31:14;6.60;;;2.25;;
7336;SDS011;54510;42.016;23.098;2024-02-28T11:33:40;9.95;;;2.97;;
7336;SDS011;54510;42.016;23.098;2024-02-28T11:36:05;5.70;;;2.22;;
7336;SDS011;54510;42.016;23.098;2024-02-28T11:38:31;11.27;;;2.72;;
7336;SDS011;54510;42.016;23.098;2024-02-28T11:40:56;10.80;;;2.60;;
7336;SDS011;54510;42.016;23.098;2024-02-28T11:43:22;6.78;;;2.75;;
7336;SDS011;54510;42.016;23.098;2024-02-28T11:45:47;7.60;;;2.97;;
7336;SDS011;54510;42.016;23.098;2024-02-28T11:48:15;10.52;;;3.40;;
7336;SDS011;54510;42.016;23.098;2024-02-28T11:50:41;5.38;;;2.55;;
7336;SDS011;54510;42.016;23.098;2024-02-28T11:53:07;8.45;;;2.70;;
7336;SDS011;54510;42.016;23.098;2024-02-28T11:55:33;10.05;;;3.90;;
7336;SDS011;54510;42.016;23.098;2024-02-28T11:57:58;9.52;;;5.65;;
7336;SDS011;54510;42.016;23.098;2024-02-28T12:00:23;9.50;;;5.97;;
7336;SDS011;54510;42.016;23.098;2024-02-28T12:02:48;14.45;;;8.13;;
7336;SDS011;54510;42.016;23.098;2024-02-28T12:05:14;5.20;;;2.80;;
7336;SDS011;54510;42.016;23.098;2024-02-28T12:07:39;6.65;;;3.35;;
7336;SDS011;54510;42.016;23.098;2024-02-28T12:10:04;6.47;;;3.30;;
7336;SDS011;54510;42.016;23.098;2024-02-28T12:12:31;7.25;;;3.35;;
7336;SDS011;54510;42.016;23.098;2024-02-28T12:15:00;6.45;;;3.22;;
7336;SDS011;54510;42.016;23.098;2024-02-28T12:17:26;11.35;;;4.15;;
7336;SDS011;54510;42.016;23.098;2024-02-28T12:19:52;8.20;;;3.53;;
7336;SDS011;54510;42.016;23.098;2024-02-28T12:22:17;11.57;;;4.68;;
7336;SDS011;54510;42.016;23.098;2024-02-28T12:24:42;12.23;;;5.00;;
7336;SDS011;54510;42.016;23.098;2024-02-28T12:27:07;9.23;;;3.28;;
7336;SDS011;54510;42.016;23.098;2024-02-28T12:29:33;10.10;;;3.28;;
7336;SDS011;54510;42.016;23.098;2024-02-28T12:31:58;10.13;;;3.47;;
7336;SDS011;54510;42.016;23.098;2024-02-28T12:34:23;5.00;;;2.42;;
7336;SDS011;54510;42.016;23.098;2024-02-28T12:36:48;6.50;;;2.97;;
7336;SDS011;54510;42.016;23.098;2024-02-28T12:39:14;11.53;;;3.27;;
7336;SDS011;54510;42.016;23.098;2024-02-28T12:41:39;10.63;;;2.92;;
7336;SDS011;54510;42.016;23.098;2024-02-28T12:44:05;7.78;;;3.53;;
7336;SDS011;54510;42.016;23.098;2024-02-28T12:46:30;6.47;;;3.00;;
7336;SDS011;54510;42.016;23.098;2024-02-28T12:48:56;8.80;;;2.47;;
7336;SDS011;54510;42.016;23.098;2024-02-28T12:54:05;8.27;;;3.47;;
7336;SDS011;54510;42.016;23.098;2024-02-28T12:56:30;8.88;;;3.55;;
7336;SDS011;54510;42.016;23.098;2024-02-28T12:58:56;11.07;;;4.82;;
7336;SDS011;54510;42.016;23.098;2024-02-28T13:01:21;10.93;;;5.00;;
7336;SDS011;54510;42.016;23.098;2024-02-28T13:03:46;5.93;;;2.97;;
7336;SDS011;54510;42.016;23.098;2024-02-28T13:06:13;14.00;;;5.65;;
7336;SDS011;54510;42.016;23.098;2024-02-28T13:08:39;6.38;;;2.70;;
7336;SDS011;54510;42.016;23.098;2024-02-28T13:11:04;9.40;;;5.07;;
7336;SDS011;54510;42.016;23.098;2024-02-28T13:13:29;15.32;;;7.32;;
7336;SDS011;54510;42.016;23.098;2024-02-28T13:15:54;10.95;;;2.97;;
7336;SDS011;54510;42.016;23.098;2024-02-28T13:18:20;4.20;;;2.30;;
7336;SDS011;54510;42.016;23.098;2024-02-28T13:20:45;12.70;;;7.00;;
7336;SDS011;54510;42.016;23.098;2024-02-28T13:23:10;6.70;;;2.67;;
7336;SDS011;54510;42.016;23.098;2024-02-28T13:25:35;10.73;;;3.00;;
7336;SDS011;54510;42.016;23.098;2024-02-28T13:28:00;8.40;;;2.65;;
7336;SDS011;54510;42.016;23.098;2024-02-28T13:30:26;6.60;;;3.00;;
7336;SDS011;54510;42.016;23.098;2024-02-28T13:32:51;6.18;;;2.55;;
7336;SDS011;54510;42.016;23.098;2024-02-28T13:35:16;3.85;;;2.05;;
7336;SDS011;54510;42.016;23.098;2024-02-28T13:37:41;8.68;;;3.45;;
7336;SDS011;54510;42.016;23.098;2024-02-28T13:40:07;5.90;;;2.70;;
7336;SDS011;54510;42.016;23.098;2024-02-28T13:42:32;10.75;;;3.20;;
7336;SDS011;54510;42.016;23.098;2024-02-28T13:44:58;4.50;;;2.28;;
7336;SDS011;54510;42.016;23.098;2024-02-28T13:47:23;5.53;;;2.50;;
7336;SDS011;54510;42.016;23.098;2024-02-28T13:49:48;5.47;;;2.67;;
7336;SDS011;54510;42.016;23.098;2024-02-28T13:52:14;5.88;;;2.67;;
7336;SDS011;54510;42.016;23.098;2024-02-28T13:54:40;6.47;;;2.63;;
7336;SDS011;54510;42.016;23.098;2024-02-28T13:57:05;7.80;;;3.20;;
7336;SDS011;54510;42.016;23.098;2024-02-28T13:59:30;10.63;;;4.50;;
7336;SDS011;54510;42.016;23.098;2024-02-28T14:01:56;6.00;;;2.55;;
7336;SDS011;54510;42.016;23.098;2024-02-28T14:04:21;7.38;;;3.20;;
7336;SDS011;54510;42.016;23.098;2024-02-28T14:06:46;10.82;;;3.47;;
7336;SDS011;54510;42.016;23.098;2024-02-28T14:09:12;7.82;;;3.28;;
7336;SDS011;54510;42.016;23.098;2024-02-28T14:11:37;11.98;;;3.33;;
7336;SDS011;54510;42.016;23.098;2024-02-28T14:14:02;9.85;;;4.65;;
7336;SDS011;54510;42.016;23.098;2024-02-28T14:16:29;10.07;;;4.18;;
7336;SDS011;54510;42.016;23.098;2024-02-28T14:18:57;8.40;;;3.65;;
7336;SDS011;54510;42.016;23.098;2024-02-28T14:21:22;5.53;;;3.20;;
7336;SDS011;54510;42.016;23.098;2024-02-28T14:23:49;9.82;;;4.10;;
7336;SDS011;54510;42.016;23.098;2024-02-28T14:26:14;7.15;;;2.95;;
7336;SDS011;54510;42.016;23.098;2024-02-28T14:28:40;14.07;;;3.10;;